createdAt,value
2018-08-20T00:02:25.788Z,20.80
2018-08-20T00:04:55.049Z,20.68
2018-08-20T00:07:23.907Z,20.81
2018-08-20T00:09:52.924Z,20.73
2018-08-20T00:12:22.071Z,20.61
2018-08-20T00:14:52.595Z,20.72
2018-08-20T00:17:21.615Z,20.65
2018-08-20T00:19:50.424Z,20.67
2018-08-20T00:22:19.226Z,20.68
2018-08-20T00:25:07.345Z,20.70
2018-08-20T00:27:36.181Z,20.68
2018-08-20T00:30:07.216Z,20.61
2018-08-20T00:32:36.023Z,20.69
2018-08-20T00:35:04.904Z,20.66
2018-08-20T00:37:33.765Z,20.64
2018-08-20T00:40:02.597Z,20.64
2018-08-20T00:42:31.384Z,20.59
2018-08-20T00:45:00.195Z,20.58
2018-08-20T00:47:28.967Z,20.53
2018-08-20T00:49:57.816Z,20.51
2018-08-20T00:52:27.000Z,20.53
2018-08-20T00:54:55.776Z,20.32
2018-08-20T00:57:24.952Z,20.21
2018-08-20T00:59:53.982Z,20.05
2018-08-20T01:02:24.739Z,19.90
2018-08-20T01:04:53.693Z,19.70
2018-08-20T01:07:22.642Z,19.69
2018-08-20T01:09:51.448Z,19.64
2018-08-20T01:12:20.232Z,19.60
2018-08-20T01:14:49.181Z,19.66
2018-08-20T01:17:18.295Z,19.61
2018-08-20T01:19:47.120Z,19.61
2018-08-20T01:22:16.529Z,19.48
2018-08-20T01:24:45.314Z,19.60
2018-08-20T01:27:31.149Z,19.50
2018-08-20T01:30:00.092Z,19.51
2018-08-20T01:32:28.868Z,19.56
2018-08-20T01:35:17.395Z,19.54
2018-08-20T01:37:46.698Z,19.59
2018-08-20T01:40:15.556Z,19.69
2018-08-20T01:42:44.468Z,19.72
2018-08-20T01:45:13.249Z,19.77
2018-08-20T01:47:42.113Z,19.75
2018-08-20T01:50:11.252Z,19.75
2018-08-20T01:52:40.100Z,19.82
2018-08-20T01:55:09.051Z,19.89
2018-08-20T01:57:38.156Z,19.90
2018-08-20T02:00:07.024Z,19.87
2018-08-20T02:02:35.832Z,19.84
2018-08-20T02:05:06.524Z,19.90
2018-08-20T02:07:35.631Z,19.79
2018-08-20T02:10:05.905Z,19.86
2018-08-20T02:12:34.844Z,19.85
2018-08-20T02:15:04.690Z,20.00
2018-08-20T02:17:33.580Z,19.93
2018-08-20T02:20:02.637Z,19.87
2018-08-20T02:22:31.774Z,19.89
2018-08-20T02:25:00.581Z,19.92
2018-08-20T02:27:29.488Z,19.80
2018-08-20T02:29:58.342Z,19.92
2018-08-20T02:32:27.139Z,19.90
2018-08-20T02:34:56.119Z,19.84
2018-08-20T02:37:46.939Z,19.87
2018-08-20T02:40:17.320Z,19.93
2018-08-20T02:42:46.466Z,19.99
2018-08-20T02:45:18.054Z,19.95
2018-08-20T02:47:47.225Z,19.96
2018-08-20T02:50:16.312Z,19.86
2018-08-20T02:52:45.566Z,19.87
2018-08-20T02:55:14.459Z,19.82
2018-08-20T02:57:43.326Z,19.89
2018-08-20T03:00:13.965Z,19.82
2018-08-20T03:02:42.928Z,19.89
2018-08-20T03:05:12.529Z,19.90
2018-08-20T03:07:41.504Z,19.89
2018-08-20T03:10:12.159Z,19.87
2018-08-20T03:12:41.396Z,19.87
2018-08-20T03:15:11.265Z,19.90
2018-08-20T03:17:40.116Z,19.89
2018-08-20T03:20:09.004Z,19.88
2018-08-20T03:22:38.045Z,19.88
2018-08-20T03:25:07.664Z,19.78
2018-08-20T03:27:36.760Z,19.81
2018-08-20T03:30:07.607Z,19.90
2018-08-20T03:32:36.896Z,19.87
2018-08-20T03:35:08.659Z,19.71
2018-08-20T03:37:37.872Z,19.73
2018-08-20T03:40:10.007Z,19.76
2018-08-20T03:42:38.827Z,19.76
2018-08-20T03:45:08.631Z,19.90
2018-08-20T03:47:37.699Z,19.87
2018-08-20T03:50:10.451Z,19.82
2018-08-20T03:52:39.474Z,19.86
2018-08-20T03:55:08.320Z,19.89
2018-08-20T03:57:37.589Z,19.79
2018-08-20T04:00:08.480Z,19.85
2018-08-20T04:02:37.251Z,19.82
2018-08-20T04:05:06.272Z,19.93
2018-08-20T04:07:35.073Z,19.78
2018-08-20T04:10:03.993Z,19.87
2018-08-20T04:12:32.786Z,19.74
2018-08-20T04:15:02.194Z,19.86
2018-08-20T04:17:31.008Z,19.80
2018-08-20T04:19:59.790Z,19.89
2018-08-20T04:22:28.708Z,19.84
2018-08-20T04:24:57.504Z,19.82
2018-08-20T04:27:26.278Z,19.84
2018-08-20T04:29:55.255Z,19.83
2018-08-20T04:32:24.040Z,19.91
2018-08-20T04:34:53.032Z,19.91
2018-08-20T04:37:21.979Z,19.93
2018-08-20T04:39:50.732Z,19.87
2018-08-20T04:42:19.783Z,19.93
2018-08-20T04:44:48.615Z,19.87
2018-08-20T04:47:17.441Z,19.92
2018-08-20T04:49:46.224Z,20.00
2018-08-20T04:52:15.125Z,19.93
2018-08-20T04:54:43.939Z,19.94
2018-08-20T04:57:12.999Z,19.97
2018-08-20T04:59:43.255Z,19.95
2018-08-20T05:02:12.122Z,19.90
2018-08-20T05:04:40.871Z,20.03
2018-08-20T05:07:09.735Z,19.95
2018-08-20T05:09:38.540Z,20.00
2018-08-20T05:12:07.326Z,20.00
2018-08-20T05:14:36.279Z,19.93
2018-08-20T05:17:05.448Z,20.01
2018-08-20T05:19:34.259Z,19.96
2018-08-20T05:22:03.365Z,19.90
2018-08-20T05:24:32.151Z,19.94
2018-08-20T05:27:00.947Z,19.89
2018-08-20T05:29:29.888Z,19.97
2018-08-20T05:31:58.707Z,19.92
2018-08-20T05:34:27.476Z,19.87
2018-08-20T05:36:56.380Z,20.02
2018-08-20T05:39:25.324Z,19.96
2018-08-20T05:41:54.144Z,19.99
2018-08-20T05:44:23.036Z,20.08
2018-08-20T05:46:51.828Z,20.09
2018-08-20T05:49:20.659Z,20.09
2018-08-20T05:51:49.700Z,19.99
2018-08-20T05:54:18.476Z,20.06
2018-08-20T05:56:47.306Z,20.09
2018-08-20T05:59:16.408Z,19.98
2018-08-20T06:01:45.233Z,19.78
2018-08-20T06:04:14.019Z,19.92
2018-08-20T06:06:42.852Z,19.78
2018-08-20T06:09:12.134Z,19.96
2018-08-20T06:11:40.951Z,19.87
2018-08-20T06:14:09.828Z,19.90
2018-08-20T06:16:38.689Z,19.84
2018-08-20T06:19:07.538Z,19.93
2018-08-20T06:21:36.584Z,19.89
2018-08-20T06:24:05.378Z,19.90
2018-08-20T06:26:34.148Z,20.01
2018-08-20T06:29:03.092Z,20.02
2018-08-20T06:31:31.883Z,20.02
2018-08-20T06:34:00.817Z,20.15
2018-08-20T06:36:29.999Z,20.10
2018-08-20T06:38:58.782Z,20.03
2018-08-20T06:41:27.679Z,19.91
2018-08-20T06:43:56.528Z,19.92
2018-08-20T06:46:25.380Z,19.92
2018-08-20T06:48:54.158Z,20.10
2018-08-20T06:51:22.983Z,20.25
2018-08-20T06:53:51.735Z,20.06
2018-08-20T06:56:20.495Z,20.11
2018-08-20T06:58:49.564Z,20.23
2018-08-20T07:01:18.459Z,20.19
2018-08-20T07:03:47.282Z,20.03
2018-08-20T07:06:16.208Z,19.78
2018-08-20T07:08:45.102Z,19.87
2018-08-20T07:11:13.988Z,20.00
2018-08-20T07:13:43.030Z,20.00
2018-08-20T07:16:12.026Z,19.88
2018-08-20T07:18:40.884Z,19.58
2018-08-20T07:21:09.843Z,19.60
2018-08-20T07:23:38.785Z,19.82
2018-08-20T07:26:07.567Z,19.74
2018-08-20T07:28:36.711Z,19.76
2018-08-20T07:31:05.626Z,19.63
2018-08-20T07:33:34.537Z,19.58
2018-08-20T07:36:03.724Z,19.44
2018-08-20T07:38:32.524Z,19.53
2018-08-20T07:41:01.727Z,19.60
2018-08-20T07:43:30.767Z,19.78
2018-08-20T07:45:59.623Z,20.00
2018-08-20T07:48:28.566Z,20.15
2018-08-20T07:50:57.670Z,20.62
2018-08-20T07:53:26.520Z,20.92
2018-08-20T07:55:55.330Z,21.13
2018-08-20T07:58:24.299Z,21.52
2018-08-20T08:00:53.132Z,21.58
2018-08-20T08:03:27.447Z,21.23
2018-08-20T08:05:57.245Z,21.48
2018-08-20T08:08:26.233Z,21.48
2018-08-20T08:10:55.212Z,21.57
2018-08-20T08:13:24.100Z,21.53
2018-08-20T08:15:52.907Z,21.40
2018-08-20T08:18:21.926Z,21.52
2018-08-20T08:20:50.901Z,21.55
2018-08-20T08:23:19.804Z,21.37
2018-08-20T08:25:48.824Z,21.70
2018-08-20T08:28:17.644Z,22.00
2018-08-20T08:30:46.783Z,22.55
2018-08-20T08:33:15.748Z,22.68
2018-08-20T08:35:44.620Z,22.65
2018-08-20T08:38:13.532Z,22.23
2018-08-20T08:40:42.413Z,22.12
2018-08-20T08:43:11.551Z,22.15
2018-08-20T08:45:40.408Z,21.99
2018-08-20T08:48:09.313Z,21.98
2018-08-20T08:50:38.207Z,21.62
2018-08-20T08:53:07.137Z,22.13
2018-08-20T08:55:36.033Z,22.58
2018-08-20T08:58:05.075Z,23.63
2018-08-20T09:00:34.035Z,23.36
2018-08-20T09:03:02.826Z,22.70
2018-08-20T09:05:31.892Z,22.79
2018-08-20T09:08:00.707Z,22.46
2018-08-20T09:10:29.556Z,22.17
2018-08-20T09:12:58.481Z,21.93
2018-08-20T09:15:27.395Z,22.01
2018-08-20T09:17:56.351Z,21.94
2018-08-20T09:20:25.187Z,22.07
2018-08-20T09:22:54.128Z,21.62
2018-08-20T09:25:22.989Z,21.62
2018-08-20T09:27:51.875Z,21.61
2018-08-20T09:30:22.334Z,21.75
2018-08-20T09:32:51.219Z,21.74
2018-08-20T09:35:20.136Z,21.88
2018-08-20T09:37:49.025Z,21.71
2018-08-20T09:40:17.905Z,21.93
2018-08-20T09:42:46.992Z,21.88
2018-08-20T09:45:15.841Z,21.84
2018-08-20T09:47:44.620Z,22.00
2018-08-20T09:50:15.554Z,22.01
2018-08-20T09:52:44.826Z,21.90
2018-08-20T09:55:13.660Z,22.14
2018-08-20T09:57:42.639Z,22.10
2018-08-20T10:00:19.892Z,22.00
2018-08-20T10:02:49.604Z,21.83
2018-08-20T10:05:18.703Z,22.06
2018-08-20T10:07:47.900Z,22.11
2018-08-20T10:10:16.854Z,22.42
2018-08-20T10:12:46.204Z,22.35
2018-08-20T10:15:15.189Z,22.75
2018-08-20T10:17:44.559Z,22.86
2018-08-20T10:20:14.424Z,23.21
2018-08-20T10:22:43.366Z,22.79
2018-08-20T10:25:12.496Z,22.54
2018-08-20T10:27:41.347Z,22.82
2018-08-20T10:30:11.880Z,23.14
2018-08-20T10:32:40.919Z,23.40
2018-08-20T10:35:09.835Z,23.67
2018-08-20T10:37:38.663Z,23.09
2018-08-20T10:40:08.522Z,22.70
2018-08-20T10:42:37.977Z,22.02
2018-08-20T10:45:16.530Z,22.08
2018-08-20T10:47:47.092Z,21.96
2018-08-20T10:50:18.272Z,22.06
2018-08-20T10:52:49.273Z,21.79
2018-08-20T10:55:18.217Z,22.05
2018-08-20T10:57:47.205Z,21.99
2018-08-20T11:00:16.567Z,21.82
2018-08-20T11:02:45.455Z,21.96
2018-08-20T11:05:17.562Z,22.51
2018-08-20T11:07:46.750Z,23.17
2018-08-20T11:10:15.640Z,23.04
2018-08-20T11:12:44.503Z,23.20
2018-08-20T11:15:13.362Z,23.09
2018-08-20T11:17:42.185Z,22.84
2018-08-20T11:20:15.148Z,23.04
2018-08-20T11:22:44.159Z,23.19
2018-08-20T11:25:13.569Z,23.16
2018-08-20T11:27:42.627Z,23.08
2018-08-20T11:30:13.413Z,22.88
2018-08-20T11:32:42.311Z,22.83
2018-08-20T11:35:11.847Z,22.78
2018-08-20T11:37:41.004Z,22.73
2018-08-20T11:40:09.896Z,22.36
2018-08-20T11:42:38.830Z,22.53
2018-08-20T11:45:11.577Z,22.82
2018-08-20T11:47:40.651Z,22.68
2018-08-20T11:50:10.073Z,22.94
2018-08-20T11:52:39.463Z,23.08
2018-08-20T11:55:08.623Z,22.94
2018-08-20T11:57:37.444Z,22.86
2018-08-20T12:00:09.280Z,22.77
2018-08-20T12:02:38.323Z,22.54
2018-08-20T12:05:08.239Z,22.75
2018-08-20T12:07:37.116Z,22.72
2018-08-20T12:10:08.025Z,22.30
2018-08-20T12:12:37.159Z,21.96
2018-08-20T12:15:08.219Z,22.06
2018-08-20T12:17:37.023Z,21.98
2018-08-20T12:20:06.796Z,21.85
2018-08-20T12:22:35.673Z,21.80
2018-08-20T12:25:05.565Z,21.62
2018-08-20T12:27:34.391Z,21.14
2018-08-20T12:30:03.511Z,20.50
2018-08-20T12:32:32.294Z,20.88
2018-08-20T12:35:01.077Z,20.96
2018-08-20T12:37:30.260Z,21.19
2018-08-20T12:39:59.454Z,21.35
2018-08-20T12:42:28.095Z,21.22
2018-08-20T12:44:56.937Z,21.27
2018-08-20T12:47:25.716Z,21.15
2018-08-20T12:49:54.463Z,21.34
2018-08-20T12:52:24.942Z,21.39
2018-08-20T12:54:53.710Z,21.28
2018-08-20T12:57:22.624Z,21.53
2018-08-20T12:59:55.740Z,21.28
2018-08-20T13:02:24.567Z,21.92
2018-08-20T13:04:53.351Z,21.93
2018-08-20T13:07:22.161Z,21.53
2018-08-20T13:09:50.952Z,21.53
2018-08-20T13:12:19.778Z,21.55
2018-08-20T13:14:48.671Z,21.36
2018-08-20T13:17:17.898Z,21.55
2018-08-20T13:19:46.741Z,21.47
2018-08-20T13:22:15.564Z,21.86
2018-08-20T13:24:44.323Z,21.96
2018-08-20T13:27:13.196Z,22.21
2018-08-20T13:29:42.422Z,21.95
2018-08-20T13:32:11.210Z,21.95
2018-08-20T13:34:39.988Z,22.15
2018-08-20T13:37:08.961Z,22.23
2018-08-20T13:39:37.800Z,22.43
2018-08-20T13:42:06.775Z,22.15
2018-08-20T13:44:35.645Z,21.99
2018-08-20T13:47:04.535Z,22.01
2018-08-20T13:49:33.319Z,22.32
2018-08-20T13:52:02.325Z,22.26
2018-08-20T13:54:31.448Z,22.34
2018-08-20T13:57:00.252Z,22.30
2018-08-20T13:59:29.092Z,22.13
2018-08-20T14:01:57.931Z,22.39
2018-08-20T14:04:26.812Z,22.38
2018-08-20T14:06:55.599Z,22.15
2018-08-20T14:09:25.108Z,22.46
2018-08-20T14:11:53.875Z,22.31
2018-08-20T14:14:22.632Z,22.43
2018-08-20T14:16:51.780Z,22.96
2018-08-20T14:19:20.577Z,22.88
2018-08-20T14:21:49.371Z,22.97
2018-08-20T14:24:18.195Z,22.95
2018-08-20T14:26:46.976Z,23.05
2018-08-20T14:29:15.809Z,23.14
2018-08-20T14:31:44.613Z,22.91
2018-08-20T14:34:13.415Z,22.79
2018-08-20T14:36:42.312Z,22.47
2018-08-20T14:39:11.159Z,22.45
2018-08-20T14:41:40.116Z,22.61
2018-08-20T14:44:08.893Z,22.27
2018-08-20T14:46:37.840Z,22.39
2018-08-20T14:49:06.641Z,21.88
2018-08-20T14:51:35.442Z,21.76
2018-08-20T14:54:04.438Z,21.92
2018-08-20T14:56:33.232Z,21.59
2018-08-20T14:59:02.017Z,22.03
2018-08-20T15:01:31.128Z,22.01
2018-08-20T15:03:59.958Z,22.03
2018-08-20T15:06:28.854Z,22.13
2018-08-20T15:08:57.812Z,21.70
2018-08-20T15:11:26.572Z,21.77
2018-08-20T15:13:55.353Z,21.80
2018-08-20T15:16:24.290Z,21.92
2018-08-20T15:18:53.179Z,21.90
2018-08-20T15:21:21.962Z,21.91
2018-08-20T15:23:51.197Z,21.91
2018-08-20T15:26:20.032Z,21.91
2018-08-20T15:28:48.787Z,22.06
2018-08-20T15:31:17.799Z,22.00
2018-08-20T15:33:46.557Z,21.97
2018-08-20T15:36:15.340Z,21.90
2018-08-20T15:38:44.399Z,21.83
2018-08-20T15:41:13.248Z,21.99
2018-08-20T15:43:42.076Z,21.76
2018-08-20T15:46:11.203Z,21.81
2018-08-20T15:48:39.985Z,21.57
2018-08-20T15:51:08.907Z,21.81
2018-08-20T15:53:37.732Z,22.19
2018-08-20T15:56:06.644Z,22.30
2018-08-20T15:58:35.516Z,22.49
2018-08-20T16:01:04.456Z,22.44
2018-08-20T16:03:33.261Z,22.37
2018-08-20T16:06:02.216Z,22.27
2018-08-20T16:08:31.040Z,22.39
2018-08-20T16:10:59.811Z,22.49
2018-08-20T16:13:28.629Z,22.42
2018-08-20T16:15:57.601Z,22.47
2018-08-20T16:18:26.475Z,22.02
2018-08-20T16:20:55.859Z,21.92
2018-08-20T16:23:24.693Z,21.69
2018-08-20T16:25:53.551Z,21.82
2018-08-20T16:28:22.410Z,21.89
2018-08-20T16:30:51.196Z,21.96
2018-08-20T16:33:20.137Z,21.92
2018-08-20T16:35:49.104Z,21.95
2018-08-20T16:38:18.027Z,22.31
2018-08-20T16:40:46.895Z,22.18
2018-08-20T16:43:15.844Z,21.92
2018-08-20T16:45:44.712Z,21.96
2018-08-20T16:48:13.588Z,21.67
2018-08-20T16:50:42.511Z,21.56
2018-08-20T16:53:11.381Z,21.31
2018-08-20T16:55:40.219Z,21.53
2018-08-20T16:58:09.318Z,21.44
2018-08-20T17:00:38.132Z,21.36
2018-08-20T17:03:12.011Z,21.26
2018-08-20T17:05:46.811Z,21.40
2018-08-20T17:08:33.624Z,21.32
2018-08-20T17:11:02.433Z,21.15
2018-08-20T17:13:31.303Z,21.15
2018-08-20T17:16:00.243Z,21.21
2018-08-20T17:18:29.220Z,21.22
2018-08-20T17:20:58.121Z,21.17
2018-08-20T17:23:26.962Z,21.17
2018-08-20T17:25:57.536Z,21.04
2018-08-20T17:28:27.113Z,20.91
2018-08-20T17:30:59.091Z,21.01
2018-08-20T17:33:33.293Z,20.98
2018-08-20T17:36:02.783Z,21.07
2018-08-20T17:38:31.651Z,20.92
2018-08-20T17:41:00.580Z,20.87
2018-08-20T17:43:29.473Z,20.83
2018-08-20T17:45:58.529Z,20.86
2018-08-20T17:48:31.262Z,20.66
2018-08-20T17:51:00.623Z,20.42
2018-08-20T17:53:46.307Z,20.44
2018-08-20T17:56:15.199Z,20.40
2018-08-20T17:58:44.042Z,20.39
2018-08-20T18:01:12.923Z,20.39
2018-08-20T18:03:43.592Z,20.20
2018-08-20T18:06:12.464Z,20.28
2018-08-20T18:08:41.237Z,20.28
2018-08-20T18:11:10.149Z,20.15
2018-08-20T18:13:46.484Z,20.15
2018-08-20T18:16:19.427Z,20.17
2018-08-20T18:18:49.923Z,20.13
2018-08-20T18:21:19.152Z,19.96
2018-08-20T18:23:48.050Z,20.16
2018-08-20T18:26:17.107Z,20.01
2018-08-20T18:28:54.883Z,19.93
2018-08-20T18:31:26.136Z,19.95
2018-08-20T18:33:55.238Z,19.97
2018-08-20T18:36:25.500Z,20.00
2018-08-20T18:38:58.857Z,20.07
2018-08-20T18:42:03.273Z,20.07
2018-08-20T18:44:33.072Z,19.83
2018-08-20T18:47:02.175Z,19.92
2018-08-20T18:49:31.165Z,19.95
2018-08-20T18:52:11.288Z,19.95
2018-08-20T18:54:52.469Z,19.99
2018-08-20T18:57:29.234Z,19.93
2018-08-20T19:00:01.872Z,19.97
2018-08-20T19:02:40.892Z,19.88
2018-08-20T19:05:13.729Z,19.90
2018-08-20T19:07:43.096Z,19.88
2018-08-20T19:10:30.789Z,19.81
2018-08-20T19:12:59.827Z,19.63
2018-08-20T19:15:44.577Z,19.69
2018-08-20T19:18:21.789Z,19.78
2018-08-20T19:20:50.705Z,19.75
2018-08-20T19:23:19.570Z,19.73
2018-08-20T19:25:48.516Z,19.66
2018-08-20T19:28:20.573Z,19.72
2018-08-20T19:30:50.460Z,19.58
2018-08-20T19:33:24.455Z,19.36
2018-08-20T19:35:53.943Z,19.38
2018-08-20T19:38:22.897Z,19.43
2018-08-20T19:41:03.618Z,19.45
2018-08-20T19:44:04.363Z,19.49
2018-08-20T19:46:37.495Z,19.40
2018-08-20T19:49:10.850Z,19.36
2018-08-20T19:51:41.821Z,19.31
2018-08-20T19:54:13.599Z,19.33
2018-08-20T19:56:42.673Z,19.33
2018-08-20T19:59:12.252Z,19.16
2018-08-20T20:01:41.432Z,19.08
2018-08-20T20:04:15.772Z,19.11
2018-08-20T20:06:44.760Z,19.15
2018-08-20T20:09:13.683Z,19.21
2018-08-20T20:11:46.828Z,19.20
2018-08-20T20:14:15.743Z,19.14
2018-08-20T20:16:50.181Z,19.13
2018-08-20T20:19:19.170Z,19.06
2018-08-20T20:21:48.274Z,19.01
2018-08-20T20:24:17.139Z,18.95
2018-08-20T20:26:46.461Z,19.06
2018-08-20T20:29:15.448Z,19.06
2018-08-20T20:31:44.627Z,19.01
2018-08-20T20:34:13.523Z,18.86
2018-08-20T20:36:42.447Z,18.79
2018-08-20T20:39:12.540Z,18.98
2018-08-20T20:41:41.422Z,18.88
2018-08-20T20:44:11.475Z,18.72
2018-08-20T20:46:40.395Z,18.78
2018-08-20T20:49:09.469Z,18.86
2018-08-20T20:51:38.331Z,18.86
2018-08-20T20:54:07.238Z,18.84
2018-08-20T20:56:36.117Z,18.79
2018-08-20T20:59:05.073Z,18.64
2018-08-20T21:01:33.939Z,18.89
2018-08-20T21:04:07.101Z,18.97
2018-08-20T21:06:40.100Z,18.94
2018-08-20T21:09:12.462Z,18.70
2018-08-20T21:11:41.421Z,18.81
2018-08-20T21:14:10.518Z,18.90
2018-08-20T21:16:39.401Z,18.82
2018-08-20T21:19:08.378Z,18.82
2018-08-20T21:21:37.259Z,18.92
2018-08-20T21:24:07.484Z,18.87
2018-08-20T21:26:36.289Z,18.74
2018-08-20T21:29:05.294Z,18.74
2018-08-20T21:31:40.101Z,18.90
2018-08-20T21:34:09.147Z,18.99
2018-08-20T21:36:38.045Z,18.99
2018-08-20T21:39:09.396Z,18.82
2018-08-20T21:41:38.397Z,18.91
2018-08-20T21:44:07.339Z,18.81
2018-08-20T21:46:36.209Z,18.69
2018-08-20T21:49:05.673Z,18.77
2018-08-20T21:51:41.680Z,18.78
2018-08-20T21:54:10.561Z,18.69
2018-08-20T21:56:50.906Z,18.79
2018-08-20T21:59:19.776Z,18.70
2018-08-20T22:01:49.065Z,18.45
2018-08-20T22:04:19.627Z,18.51
2018-08-20T22:06:49.168Z,18.67
2018-08-20T22:09:18.507Z,18.65
2018-08-20T22:11:47.346Z,18.66
2018-08-20T22:14:16.189Z,18.73
2018-08-20T22:16:45.136Z,18.79
2018-08-20T22:19:14.079Z,18.76
2018-08-20T22:21:42.971Z,18.65
2018-08-20T22:24:11.930Z,18.41
2018-08-20T22:26:46.373Z,18.43
2018-08-20T22:29:15.400Z,18.41
2018-08-20T22:31:49.727Z,18.45
2018-08-20T22:34:18.652Z,18.52
2018-08-20T22:36:51.956Z,18.48
2018-08-20T22:39:21.986Z,18.24
2018-08-20T22:41:51.093Z,18.38
2018-08-20T22:44:19.865Z,18.27
2018-08-20T22:46:48.710Z,18.25
2018-08-20T22:49:18.151Z,18.26
2018-08-20T22:51:47.154Z,18.22
2018-08-20T22:54:16.453Z,18.20
2018-08-20T22:56:45.279Z,18.17
2018-08-20T22:59:14.279Z,18.21
2018-08-20T23:01:43.124Z,18.35
2018-08-20T23:04:12.121Z,18.22
2018-08-20T23:06:40.928Z,18.04
2018-08-20T23:09:30.227Z,18.02
2018-08-20T23:11:59.134Z,18.03
2018-08-20T23:14:29.680Z,17.86
2018-08-20T23:16:58.642Z,17.99
2018-08-20T23:19:30.430Z,17.89
2018-08-20T23:21:59.407Z,17.66
2018-08-20T23:24:28.196Z,17.44
2018-08-20T23:26:57.372Z,17.47
2018-08-20T23:29:26.191Z,17.35
2018-08-20T23:31:55.091Z,17.18
2018-08-20T23:34:23.875Z,17.61
2018-08-20T23:36:52.743Z,17.64
2018-08-20T23:39:21.613Z,17.59
2018-08-20T23:41:50.543Z,17.62
2018-08-20T23:44:19.359Z,17.56
2018-08-20T23:46:49.704Z,17.64
2018-08-20T23:49:18.483Z,17.58
2018-08-20T23:51:48.011Z,17.44
2018-08-20T23:54:16.875Z,17.50
2018-08-20T23:56:45.763Z,17.43
2018-08-20T23:59:14.593Z,17.21
